Time;durP1;ratioP1;P1;durP2;ratioP2;P2;SDS_P1;SDS_P2;PMS_P1;PMS_P2;Temp;Humidity;BMP_temperature;BMP_pressure;BME280_temperature;BME280_humidity;BME280_pressure;Samples;Min_cycle;Max_cycle;Signal;HPM_P1;HPM_P2
2022/03/11 00:00:17;;;;;;;;;18.00;18.00;;;;;-7.45;100.00;102550.91;3722424;37;21198;-54
2022/03/11 00:02:44;;;;;;;;;11.75;10.50;;;;;-7.43;100.00;102548.25;3722589;38;21107;-53
2022/03/11 00:05:12;;;;;;;;;18.50;18.00;;;;;-7.43;100.00;102545.63;3722703;38;21171;-53
2022/03/11 00:07:42;;;;;;;;;16.25;14.75;;;;;-7.47;100.00;102536.03;3722894;37;21510;-54
2022/03/11 00:10:10;;;;;;;;;15.25;13.75;;;;;-7.40;100.00;102542.94;3722694;38;21168;-51
2022/03/11 00:12:38;;;;;;;;;21.25;17.50;;;;;-7.35;100.00;102541.13;3722214;37;21401;-52
2022/03/11 00:15:06;;;;;;;;;16.75;16.75;;;;;-7.36;100.00;102539.41;3721976;37;21274;-49
2022/03/11 00:17:34;;;;;;;;;16.75;14.00;;;;;-7.39;100.00;102542.94;3722759;38;21326;-51
2022/03/11 00:20:02;;;;;;;;;15.25;14.25;;;;;-7.38;100.00;102543.81;3722760;38;21184;-53
2022/03/11 00:22:29;;;;;;;;;14.00;14.00;;;;;-7.38;100.00;102541.16;3722114;38;21266;-51
2022/03/11 00:24:57;;;;;;;;;14.00;14.00;;;;;-7.36;100.00;102547.28;3722092;38;21202;-50
2022/03/11 00:27:25;;;;;;;;;17.75;14.50;;;;;-7.35;100.00;102538.50;3723487;37;21278;-52
2022/03/11 00:29:52;;;;;;;;;17.25;13.25;;;;;-7.33;100.00;102541.97;3723578;38;20907;-50
2022/03/11 00:32:20;;;;;;;;;19.75;18.50;;;;;-7.39;100.00;102535.03;3723441;37;21211;-51
2022/03/11 00:34:48;;;;;;;;;18.50;15.50;;;;;-7.40;100.00;102538.56;3723310;38;21225;-51
2022/03/11 00:37:15;;;;;;;;;15.25;14.00;;;;;-7.44;100.00;102538.63;3722551;37;21364;-50
2022/03/11 00:39:43;;;;;;;;;17.75;14.75;;;;;-7.46;100.00;102538.66;3721750;37;21189;-51
2022/03/11 00:42:10;;;;;;;;;14.50;13.50;;;;;-7.48;100.00;102529.03;3722628;38;21112;-52
2022/03/11 00:44:39;;;;;;;;;14.75;11.75;;;;;-7.49;100.00;102529.91;3721816;37;21302;-51
2022/03/11 00:47:09;;;;;;;;;17.25;16.25;;;;;-7.57;100.00;102527.41;3722491;37;21160;-50
2022/03/11 00:49:37;;;;;;;;;20.75;18.00;;;;;-7.53;100.00;102528.22;3722435;38;21209;-49
2022/03/11 00:52:06;;;;;;;;;16.50;15.25;;;;;-7.55;100.00;102535.25;3722029;37;21352;-48
2022/03/11 00:54:33;;;;;;;;;14.25;14.00;;;;;-7.64;100.00;102509.09;3722483;37;21167;-49
2022/03/11 00:57:00;;;;;;;;;22.25;18.00;;;;;-7.61;100.00;102524.81;3722723;37;21158;-51
2022/03/11 00:59:28;;;;;;;;;20.00;17.75;;;;;-7.62;100.00;102526.59;3721716;38;21259;-50
2022/03/11 01:01:55;;;;;;;;;13.00;10.75;;;;;-7.69;100.00;102523.16;3722461;37;21261;-52
2022/03/11 01:04:23;;;;;;;;;9.50;9.50;;;;;-7.63;100.00;102523.97;3722454;37;21180;-53
2022/03/11 01:06:50;;;;;;;;;17.00;15.00;;;;;-7.69;100.00;102533.69;3722335;37;21088;-52
2022/03/11 01:09:17;;;;;;;;;20.25;18.00;;;;;-7.74;100.00;102532.00;3722473;37;21211;-53
2022/03/11 01:11:45;;;;;;;;;24.50;21.00;;;;;-7.77;100.00;102540.78;3721728;38;21169;-54
2022/03/11 01:14:12;;;;;;;;;13.00;12.50;;;;;-7.78;100.00;102539.03;3722644;37;21054;-56
2022/03/11 01:16:40;;;;;;;;;20.00;15.00;;;;;-7.81;100.00;102538.25;3721756;38;21222;-55
2022/03/11 01:19:07;;;;;;;;;16.50;13.00;;;;;-7.85;100.00;102534.78;3722544;37;21222;-55
2022/03/11 01:21:34;;;;;;;;;13.50;12.50;;;;;-7.84;100.00;102540.91;3721524;37;21186;-56
2022/03/11 01:24:01;;;;;;;;;17.25;16.00;;;;;-7.83;100.00;102538.25;3722635;37;21167;-55
2022/03/11 01:26:29;;;;;;;;;14.00;12.25;;;;;-7.83;100.00;102537.38;3722412;38;21224;-57
2022/03/11 01:28:56;;;;;;;;;18.50;15.75;;;;;-7.85;100.00;102537.41;3722576;38;21237;-53
2022/03/11 01:31:24;;;;;;;;;10.50;10.25;;;;;-7.87;100.00;102541.81;3721793;37;21166;-53
2022/03/11 01:33:51;;;;;;;;;12.50;11.25;;;;;-7.83;100.00;102543.50;3722681;37;21182;-53
2022/03/11 01:36:20;;;;;;;;;12.25;12.25;;;;;-7.82;100.00;102547.88;3722399;38;21036;-55
2022/03/11 01:38:48;;;;;;;;;14.00;13.25;;;;;-7.81;100.00;102538.25;3722499;38;21114;-53
2022/03/11 01:41:15;;;;;;;;;15.00;14.00;;;;;-7.86;100.00;102533.03;3721838;37;21140;-55
2022/03/11 01:44:01;;;;;;;;;10.25;8.25;;;;;-7.81;100.00;102538.25;3721833;38;20760;-55
2022/03/11 01:46:30;;;;;;;;;12.00;8.75;;;;;-7.80;100.00;102546.09;3721953;37;20756;-54
2022/03/11 01:48:58;;;;;;;;;17.00;16.00;;;;;-7.84;100.00;102543.53;3721865;38;20721;-54
2022/03/11 01:51:30;;;;;;;;;10.00;9.50;;;;;-7.81;100.00;102548.75;3722452;38;21115;-54
2022/03/11 01:53:58;;;;;;;;;8.25;5.75;;;;;-7.80;100.00;102553.13;3722549;37;21003;-56
2022/03/11 01:56:26;;;;;;;;;16.00;13.25;;;;;-7.77;100.00;102543.41;3721701;38;21047;-54
2022/03/11 01:58:56;;;;;;;;;19.00;13.75;;;;;-7.72;100.00;102549.47;3721825;37;21134;-56
2022/03/11 02:01:24;;;;;;;;;14.50;13.25;;;;;-7.74;100.00;102538.13;3722421;38;21105;-55
2022/03/11 02:03:52;;;;;;;;;15.50;11.75;;;;;-7.68;100.00;102543.31;3722538;37;21132;-54
2022/03/11 02:06:22;;;;;;;;;10.50;9.25;;;;;-7.66;100.00;102548.53;3722603;38;20987;-56
2022/03/11 02:08:50;;;;;;;;;17.75;13.25;;;;;-7.63;100.00;102551.13;3722524;38;20997;-54
2022/03/11 02:11:18;;;;;;;;;14.25;12.25;;;;;-7.61;100.00;102557.25;3722663;37;21144;-56
2022/03/11 02:13:55;;;;;;;;;11.75;10.50;;;;;-7.65;100.00;102546.78;3722618;37;21008;-52
2022/03/11 02:16:30;;;;;;;;;16.00;14.75;;;;;-7.65;100.00;102552.03;3721698;38;21004;-54
2022/03/11 02:18:58;;;;;;;;;11.25;11.25;;;;;-7.63;100.00;102543.25;3722417;38;21068;-56
2022/03/11 02:21:27;;;;;;;;;16.75;13.75;;;;;-7.64;100.00;102552.03;3722623;37;20967;-54
2022/03/11 02:23:59;;;;;;;;;12.75;12.75;;;;;-7.61;100.00;102549.34;3722584;38;21102;-53
2022/03/11 02:26:29;;;;;;;;;12.75;12.75;;;;;-7.62;100.00;102550.25;3722454;37;20963;-53
2022/03/11 02:28:58;;;;;;;;;12.50;12.25;;;;;-7.69;100.00;102545.94;3722453;37;21023;-54
2022/03/11 02:31:28;;;;;;;;;13.50;11.25;;;;;-7.77;100.00;102543.41;3721781;38;21084;-53
2022/03/11 02:33:57;;;;;;;;;10.00;10.00;;;;;-7.81;100.00;102533.00;3722404;37;20996;-54
2022/03/11 02:36:25;;;;;;;;;10.00;9.50;;;;;-7.75;100.00;102549.53;3722330;37;21093;-54
2022/03/11 02:38:53;;;;;;;;;12.75;11.00;;;;;-7.71;100.00;102545.97;3722446;38;20979;-52
2022/03/11 02:41:24;;;;;;;;;9.00;7.75;;;;;-7.69;100.00;102535.44;3721678;38;21172;-52
2022/03/11 02:43:51;;;;;;;;;10.50;10.50;;;;;-7.62;100.00;102547.63;3722501;38;20968;-55
2022/03/11 02:46:18;;;;;;;;;11.00;9.50;;;;;-7.62;100.00;102549.38;3721621;37;20925;-51
2022/03/11 02:48:46;;;;;;;;;9.25;9.00;;;;;-7.65;100.00;102534.50;3722380;38;21118;-55
2022/03/11 02:51:13;;;;;;;;;13.50;11.50;;;;;-7.66;100.00;102543.28;3722620;37;20989;-53
2022/03/11 02:53:42;;;;;;;;;9.75;9.50;;;;;-7.65;100.00;102537.12;3722378;37;20938;-53
2022/03/11 02:56:10;;;;;;;;;10.00;9.00;;;;;-7.67;100.00;102541.53;3722453;37;21001;-54
2022/03/11 02:58:39;;;;;;;;;13.25;12.25;;;;;-7.67;100.00;102537.16;3722449;38;21010;-52
2022/03/11 03:01:08;;;;;;;;;9.00;8.75;;;;;-7.65;100.00;102538.91;3722561;38;21007;-52
2022/03/11 03:03:35;;;;;;;;;16.00;11.00;;;;;-7.69;100.00;102533.69;3722544;38;20979;-54
2022/03/11 03:06:03;;;;;;;;;10.00;10.00;;;;;-7.67;100.00;102538.91;3722645;37;21019;-55
2022/03/11 03:08:32;;;;;;;;;11.75;10.50;;;;;-7.69;100.00;102533.69;3722546;37;20935;-55
2022/03/11 03:10:59;;;;;;;;;11.75;10.25;;;;;-7.68;100.00;102545.06;3722573;37;20834;-56
2022/03/11 03:13:27;;;;;;;;;14.25;13.50;;;;;-7.74;100.00;102542.50;3722384;37;20956;-55
2022/03/11 03:15:54;;;;;;;;;25.00;23.50;;;;;-7.72;100.00;102546.84;3722400;38;20963;-52
2022/03/11 03:18:22;;;;;;;;;25.75;23.50;;;;;-7.75;100.00;102543.38;3722471;37;21020;-52
2022/03/11 03:20:49;;;;;;;;;39.25;38.50;;;;;-7.77;100.00;102548.66;3722299;38;21042;-54
2022/03/11 03:23:17;;;;;;;;;12.00;12.00;;;;;-7.86;100.00;102545.31;3722545;38;20964;-55
2022/03/11 03:25:45;;;;;;;;;14.00;11.75;;;;;-7.82;100.00;102545.25;3722742;38;20946;-54
2022/03/11 03:28:12;;;;;;;;;14.25;13.25;;;;;-7.87;100.00;102535.69;3722423;38;20781;-54
2022/03/11 03:30:40;;;;;;;;;17.50;13.75;;;;;-7.84;100.00;102543.53;3722189;38;20949;-56
2022/03/11 03:33:09;;;;;;;;;12.00;10.75;;;;;-7.92;100.00;102541.00;3722436;37;21043;-53
2022/03/11 03:35:36;;;;;;;;;13.25;12.25;;;;;-7.95;100.00;102541.03;3722265;38;21063;-53
2022/03/11 03:38:04;;;;;;;;;18.00;14.00;;;;;-7.97;100.00;102540.19;3722446;38;20927;-52
2022/03/11 03:40:31;;;;;;;;;20.00;18.50;;;;;-7.97;100.00;102549.81;3722462;38;20891;-51
2022/03/11 03:42:58;;;;;;;;;8.50;8.50;;;;;-8.05;100.00;102542.88;3721775;38;21146;-52
2022/03/11 03:45:26;;;;;;;;;9.00;9.00;;;;;-8.10;100.00;102535.94;3722394;38;20944;-52
2022/03/11 03:47:54;;;;;;;;;12.00;9.00;;;;;-8.12;100.00;102546.47;3721638;38;21081;-53
2022/03/11 03:50:21;;;;;;;;;8.75;7.25;;;;;-8.22;100.00;102544.81;3722299;38;20772;-53
2022/03/11 03:52:49;;;;;;;;;13.00;10.75;;;;;-8.28;100.00;102547.50;3722380;37;20875;-50
2022/03/11 03:55:16;;;;;;;;;9.75;9.75;;;;;-8.34;100.00;102542.37;3722569;38;21059;-54
2022/03/11 03:57:44;;;;;;;;;4.00;4.00;;;;;-8.37;100.00;102553.78;3722323;37;20999;-56
2022/03/11 04:00:13;;;;;;;;;15.00;13.75;;;;;-8.45;100.00;102546.84;3721608;37;20780;-55
2022/03/11 04:02:48;;;;;;;;;9.75;9.75;;;;;-8.40;100.00;102552.94;3721737;37;21027;-54
2022/03/11 04:05:17;;;;;;;;;16.00;14.25;;;;;-8.37;100.00;102559.03;3722477;38;20972;-53
2022/03/11 04:07:46;;;;;;;;;24.00;21.50;;;;;-8.40;100.00;102539.81;3721516;38;20983;-53
2022/03/11 04:10:14;;;;;;;;;60.25;45.25;;;;;-8.34;100.00;102552.88;3722424;38;21084;-55
2022/03/11 04:12:42;;;;;;;;;15.25;15.00;;;;;-8.35;100.00;102553.75;3722413;38;20971;-55
2022/03/11 04:15:10;;;;;;;;;37.75;30.50;;;;;-8.31;100.00;102560.66;3722289;38;21060;-51
2022/03/11 04:17:37;;;;;;;;;14.00;13.25;;;;;-8.30;100.00;102558.91;3721802;37;20887;-54
2022/03/11 04:20:06;;;;;;;;;18.25;16.75;;;;;-8.33;100.00;102561.63;3722457;38;20839;-53
2022/03/11 04:22:39;;;;;;;;;22.50;21.50;;;;;-8.31;100.00;102557.16;3721499;37;20811;-53
2022/03/11 04:25:09;;;;;;;;;14.75;13.00;;;;;-8.38;100.00;102552.03;3722489;37;20900;-55
2022/03/11 04:27:36;;;;;;;;;20.25;18.00;;;;;-8.31;100.00;102554.53;3722391;38;20822;-54
2022/03/11 04:30:05;;;;;;;;;10.00;9.25;;;;;-8.33;100.00;102559.00;3721526;37;20803;-55
2022/03/11 04:32:32;;;;;;;;;17.00;15.50;;;;;-8.38;100.00;102557.28;3721692;37;21063;-52
2022/03/11 04:35:00;;;;;;;;;22.75;18.75;;;;;-8.42;100.00;102552.06;3722410;38;20953;-54
2022/03/11 04:37:27;;;;;;;;;27.00;24.50;;;;;-8.39;100.00;102559.94;3721580;37;20963;-53
2022/03/11 04:39:57;;;;;;;;;10.50;9.25;;;;;-8.43;100.00;102559.09;3722456;37;20915;-54
2022/03/11 04:42:26;;;;;;;;;18.00;16.25;;;;;-8.42;100.00;102555.56;3722439;37;20700;-56
2022/03/11 04:44:53;;;;;;;;;26.50;24.75;;;;;-8.38;100.00;102559.91;3721666;38;21023;-57
2022/03/11 04:47:21;;;;;;;;;11.25;11.00;;;;;-8.35;100.00;102556.38;3721605;38;20903;-56
2022/03/11 04:49:48;;;;;;;;;15.00;15.00;;;;;-8.33;100.00;102556.38;3722226;38;20765;-55
2022/03/11 04:52:16;;;;;;;;;12.00;12.00;;;;;-8.28;100.00;102557.12;3721680;38;20827;-56
2022/03/11 04:54:43;;;;;;;;;13.00;11.50;;;;;-8.20;100.00;102563.19;3722300;37;20831;-56
2022/03/11 04:57:11;;;;;;;;;15.25;13.00;;;;;-8.18;100.00;102570.16;3722613;37;20867;-52
2022/03/11 04:59:38;;;;;;;;;17.50;14.00;;;;;-8.14;100.00;102568.38;3722101;38;20803;-52
2022/03/11 05:02:05;;;;;;;;;12.50;12.50;;;;;-8.14;100.00;102566.63;3721643;37;20821;-54
2022/03/11 05:04:33;;;;;;;;;10.00;8.75;;;;;-8.09;100.00;102558.69;3722711;37;20811;-53
2022/03/11 05:07:00;;;;;;;;;14.25;12.75;;;;;-8.03;100.00;102564.75;3722360;38;20853;-52
2022/03/11 05:09:27;;;;;;;;;12.00;12.00;;;;;-7.96;100.00;102567.31;3721681;37;20767;-53
2022/03/11 05:11:55;;;;;;;;;16.75;15.25;;;;;-7.88;100.00;102565.47;3722418;38;20667;-53
2022/03/11 05:14:22;;;;;;;;;13.00;10.00;;;;;-7.86;100.00;102559.31;3722326;37;20812;-52
2022/03/11 05:16:50;;;;;;;;;13.50;11.75;;;;;-7.81;100.00;102554.88;3722269;37;20858;-55
2022/03/11 05:19:17;;;;;;;;;9.25;8.75;;;;;-7.80;100.00;102567.12;3722351;37;20752;-54
2022/03/11 05:21:44;;;;;;;;;12.50;12.50;;;;;-7.76;100.00;102563.56;3722289;38;20773;-56
2022/03/11 05:24:11;;;;;;;;;14.25;13.75;;;;;-7.67;100.00;102568.69;3722615;37;20835;-51
2022/03/11 05:26:39;;;;;;;;;17.00;15.50;;;;;-7.63;100.00;102568.66;3722335;38;20744;-53
2022/03/11 05:29:06;;;;;;;;;18.25;11.50;;;;;-7.64;100.00;102562.53;3722512;37;20730;-52
2022/03/11 05:31:34;;;;;;;;;14.25;13.00;;;;;-7.60;100.00;102558.09;3721861;38;20760;-55
2022/03/11 05:34:01;;;;;;;;;17.25;16.25;;;;;-7.54;100.00;102564.16;3721531;37;20601;-56
2022/03/11 05:36:29;;;;;;;;;16.50;14.50;;;;;-7.48;100.00;102568.47;3722676;37;20782;-56
2022/03/11 05:38:57;;;;;;;;;14.25;11.00;;;;;-7.44;100.00;102559.66;3723696;37;20860;-57
2022/03/11 05:41:24;;;;;;;;;14.25;12.50;;;;;-7.35;100.00;102565.69;3722428;37;20960;-54
2022/03/11 05:43:53;;;;;;;;;15.00;14.00;;;;;-7.22;100.00;102570.75;3722373;37;20973;-55
2022/03/11 05:46:20;;;;;;;;;14.75;13.00;;;;;-7.09;100.00;102567.03;3721682;38;20991;-53
2022/03/11 05:48:48;;;;;;;;;14.75;13.00;;;;;-7.06;100.00;102577.53;3722476;38;20718;-55
2022/03/11 05:51:16;;;;;;;;;12.25;11.00;;;;;-7.02;100.00;102559.03;3722995;37;20976;-59
2022/03/11 05:53:43;;;;;;;;;13.50;13.00;;;;;-6.92;100.00;102554.50;3721925;37;20717;-55
2022/03/11 05:56:10;;;;;;;;;16.50;14.50;;;;;-6.91;100.00;102556.25;3722634;37;20879;-54
2022/03/11 05:58:38;;;;;;;;;14.00;12.25;;;;;-6.84;100.00;102565.78;3722702;38;20683;-57
2022/03/11 06:01:06;;;;;;;;;11.00;10.50;;;;;-6.74;100.00;102569.13;3722666;38;20750;-56
2022/03/11 06:03:33;;;;;;;;;16.25;14.25;;;;;-6.72;100.00;102552.41;3722619;38;20729;-55
2022/03/11 06:06:00;;;;;;;;;13.75;10.50;;;;;-6.61;100.00;102560.12;3722544;38;20851;-55
2022/03/11 06:08:28;;;;;;;;;14.25;12.25;;;;;-6.45;100.00;102559.00;3722611;37;20798;-56
2022/03/11 06:10:55;;;;;;;;;8.25;6.25;;;;;-6.37;100.00;102557.09;3721659;37;20768;-56
2022/03/11 06:13:22;;;;;;;;;11.75;10.25;;;;;-6.34;100.00;102571.97;3721778;38;20716;-55
2022/03/11 06:15:50;;;;;;;;;11.00;11.00;;;;;-6.38;98.33;102571.16;3722437;38;20749;-58
2022/03/11 06:18:18;;;;;;;;;10.50;10.00;;;;;-6.30;97.69;102565.75;3722488;38;20659;-56
2022/03/11 06:20:46;;;;;;;;;12.50;10.75;;;;;-6.20;97.48;102579.63;3721753;37;20713;-55
2022/03/11 06:23:14;;;;;;;;;16.50;11.00;;;;;-6.24;95.65;102564.78;3722516;38;20726;-60
2022/03/11 06:25:44;;;;;;;;;9.00;8.00;;;;;-6.25;94.44;102568.31;3722596;37;20703;-58
2022/03/11 06:28:12;;;;;;;;;7.25;6.00;;;;;-6.14;94.38;102559.28;3722450;37;20683;-56
2022/03/11 06:30:40;;;;;;;;;15.75;14.75;;;;;-6.08;95.30;102555.69;3722471;37;20738;-55
2022/03/11 06:33:09;;;;;;;;;11.75;11.50;;;;;-6.13;94.00;102552.25;3722690;37;20708;-55
2022/03/11 06:35:37;;;;;;;;;10.50;9.00;;;;;-5.93;94.18;102576.47;3722734;37;20655;-53
2022/03/11 06:38:05;;;;;;;;;11.50;9.75;;;;;-5.92;92.25;102551.84;3721748;38;20630;-57
2022/03/11 06:40:34;;;;;;;;;11.25;11.00;;;;;-5.93;92.06;102559.78;3722772;37;20543;-56
2022/03/11 06:43:02;;;;;;;;;10.50;8.25;;;;;-5.84;90.70;102551.69;3721995;38;20630;-54
2022/03/11 06:45:30;;;;;;;;;9.75;9.75;;;;;-5.90;88.49;102552.69;3722719;37;21538;-56
2022/03/11 06:47:59;;;;;;;;;7.50;7.00;;;;;-5.71;90.28;102553.13;3721940;37;20658;-56
2022/03/11 06:50:26;;;;;;;;;9.75;8.50;;;;;-5.71;87.54;102553.13;3722172;37;21549;-54
2022/03/11 06:52:54;;;;;;;;;10.75;10.75;;;;;-5.57;86.78;102542.31;3722251;37;21639;-61
2022/03/11 06:55:22;;;;;;;;;13.00;10.75;;;;;-5.50;84.79;102533.38;3721758;37;21701;-55
2022/03/11 06:57:49;;;;;;;;;18.75;13.00;;;;;-5.49;84.30;102541.25;3722712;37;20715;-56
2022/03/11 07:00:17;;;;;;;;;12.25;10.25;;;;;-5.49;81.32;102540.38;3722551;37;21716;-55
2022/03/11 07:02:45;;;;;;;;;12.50;10.75;;;;;-5.44;81.56;102515.63;3721407;37;20372;-55
2022/03/11 07:05:13;;;;;;;;;16.75;16.75;;;;;-5.33;80.08;102531.25;3722144;37;21622;-56
2022/03/11 07:07:40;;;;;;;;;8.00;7.00;;;;;-5.24;80.29;102523.12;3721920;37;20638;-54
2022/03/11 07:10:12;;;;;;;;;16.75;14.75;;;;;-5.44;77.13;102549.94;3722435;37;21425;-56
2022/03/11 07:12:40;;;;;;;;;6.75;6.50;;;;;-5.49;76.53;102535.97;3722536;37;21580;-58
2022/03/11 07:15:08;;;;;;;;;15.75;13.00;;;;;-5.42;77.15;102518.25;3721476;37;21502;-58
2022/03/11 07:17:35;;;;;;;;;13.50;12.50;;;;;-5.29;78.42;102519.72;3722013;38;21554;-56
2022/03/11 07:20:04;;;;;;;;;6.50;6.50;;;;;-5.20;76.04;102501.03;3722128;37;21615;-56
2022/03/11 07:22:32;;;;;;;;;12.75;11.25;;;;;-5.14;75.45;102490.28;3721271;37;21467;-55
2022/03/11 07:25:00;;;;;;;;;5.50;3.50;;;;;-5.03;73.81;102501.47;3721226;38;21420;-56
2022/03/11 07:27:27;;;;;;;;;8.00;8.00;;;;;-4.95;72.95;102497.78;3722270;38;21573;-55
2022/03/11 07:29:56;;;;;;;;;6.00;6.00;;;;;-4.75;72.75;102504.31;3721968;37;21406;-55
2022/03/11 07:32:26;;;;;;;;;5.75;5.00;;;;;-4.64;71.25;102503.16;3722015;37;21337;-54
2022/03/11 07:34:54;;;;;;;;;8.50;7.25;;;;;-4.74;70.26;102489.34;3722088;38;21322;-54
2022/03/11 07:37:21;;;;;;;;;9.00;7.50;;;;;-4.85;70.08;102480.81;3721542;37;21437;-57
2022/03/11 07:39:49;;;;;;;;;10.50;9.25;;;;;-4.76;67.42;102484.09;3721860;37;21506;-54
2022/03/11 07:42:17;;;;;;;;;7.50;5.75;;;;;-4.91;65.72;102497.69;3721795;38;21412;-56
2022/03/11 07:44:45;;;;;;;;;8.75;7.75;;;;;-4.98;66.76;102535.69;3722205;38;21003;-55
2022/03/11 07:47:12;;;;;;;;;5.00;4.75;;;;;-4.95;67.18;102485.44;3721516;38;21532;-53
2022/03/11 07:49:40;;;;;;;;;13.75;11.50;;;;;-4.66;66.70;102500.56;3722381;37;21388;-54
2022/03/11 07:52:14;;;;;;;;;10.50;8.75;;;;;-4.60;64.92;102487.19;3722304;38;21460;-53
2022/03/11 07:54:45;;;;;;;;;8.25;6.25;;;;;-4.70;62.42;102473.38;3722358;37;21483;-54
2022/03/11 07:57:12;;;;;;;;;4.25;4.25;;;;;-4.54;60.77;102467.66;3721915;37;21702;-52
2022/03/11 07:59:41;;;;;;;;;4.25;4.25;;;;;-4.43;58.97;102469.12;3722132;38;21385;-53
2022/03/11 08:02:09;;;;;;;;;12.00;7.00;;;;;-4.41;59.19;102484.94;3722426;38;21482;-54
2022/03/11 08:04:36;;;;;;;;;7.25;7.25;;;;;-4.41;57.54;102464.66;3721701;38;21382;-56
2022/03/11 08:07:06;;;;;;;;;9.75;9.00;;;;;-4.22;59.01;102474.75;3722257;38;21700;-55
2022/03/11 08:09:34;;;;;;;;;8.25;7.00;;;;;-4.22;58.29;102472.97;3721519;38;21568;-56
2022/03/11 08:12:03;;;;;;;;;8.50;8.00;;;;;-4.26;54.21;102447.53;3722901;37;21443;-55
2022/03/11 08:14:31;;;;;;;;;6.75;6.75;;;;;-4.06;55.00;102428.41;3723268;38;21344;-53
2022/03/11 08:16:58;;;;;;;;;10.75;10.00;;;;;-3.86;53.99;102467.53;3723674;37;21325;-54
2022/03/11 08:19:26;;;;;;;;;5.25;5.25;;;;;-4.12;53.65;102441.81;3723689;38;21554;-53
2022/03/11 08:21:53;;;;;;;;;8.25;7.50;;;;;-3.89;54.38;102507.28;3722535;38;21564;-55
2022/03/11 08:24:21;;;;;;;;;10.00;9.00;;;;;-4.01;52.63;102448.53;3721804;38;21466;-55
2022/03/11 08:26:49;;;;;;;;;19.25;16.00;;;;;-3.80;53.90;102456.75;3722416;38;21594;-56
2022/03/11 08:29:17;;;;;;;;;8.25;8.00;;;;;-3.80;53.64;102462.91;3722497;38;21625;-57
2022/03/11 08:31:44;;;;;;;;;4.75;4.75;;;;;-3.73;52.76;102448.59;3722529;37;21436;-57
2022/03/11 08:34:12;;;;;;;;;10.25;9.75;;;;;-3.74;52.86;102417.75;3722750;38;21461;-57
2022/03/11 08:36:40;;;;;;;;;7.00;7.00;;;;;-3.58;51.66;102465.75;3722355;38;21377;-57
2022/03/11 08:39:08;;;;;;;;;4.00;2.50;;;;;-3.61;47.80;102446.47;3722515;37;21617;-56
2022/03/11 08:41:35;;;;;;;;;8.25;6.25;;;;;-3.45;47.01;102455.69;3722288;37;21325;-56
2022/03/11 08:44:05;;;;;;;;;2.50;2.50;;;;;-3.42;46.17;102419.38;3722369;38;21309;-54
2022/03/11 08:46:33;;;;;;;;;4.75;4.00;;;;;-3.28;45.68;102432.19;3722288;37;21320;-53
2022/03/11 08:49:01;;;;;;;;;7.25;7.00;;;;;-3.33;45.96;102458.81;3722294;37;21298;-54
2022/03/11 08:51:28;;;;;;;;;3.25;2.00;;;;;-3.30;46.52;102419.91;3721637;37;21422;-53
2022/03/11 08:53:56;;;;;;;;;7.50;7.50;;;;;-3.19;45.50;102470.75;3722384;38;21329;-55
2022/03/11 08:56:23;;;;;;;;;2.00;2.00;;;;;-3.28;45.15;102421.59;3722521;38;21400;-55
2022/03/11 08:58:51;;;;;;;;;6.00;4.75;;;;;-3.16;44.39;102437.09;3721742;37;21338;-53
2022/03/11 09:01:19;;;;;;;;;5.00;4.25;;;;;-3.00;44.76;102416.25;3722736;38;21386;-52
2022/03/11 09:03:46;;;;;;;;;4.00;4.00;;;;;-2.82;44.64;102406.81;3721938;37;21583;-54
2022/03/11 09:06:14;;;;;;;;;9.00;8.50;;;;;-2.58;44.59;102415.66;3722607;38;21469;-55
2022/03/11 09:08:42;;;;;;;;;6.00;6.00;;;;;-2.76;44.24;102417.19;3721643;37;21400;-53
2022/03/11 09:11:10;;;;;;;;;3.50;3.50;;;;;-2.76;43.35;102435.75;3722474;37;21450;-51
2022/03/11 09:13:43;;;;;;;;;7.75;6.25;;;;;-2.64;43.37;102424.72;3722535;38;21050;-55
2022/03/11 09:16:10;;;;;;;;;5.25;5.00;;;;;-2.86;41.83;102431.69;3721804;37;21462;-52
2022/03/11 09:18:38;;;;;;;;;6.50;6.50;;;;;-2.77;42.04;102412.81;3721994;38;21255;-52
2022/03/11 09:21:05;;;;;;;;;4.25;4.25;;;;;-2.76;42.28;102415.41;3722159;37;21346;-52
2022/03/11 09:23:33;;;;;;;;;8.50;8.25;;;;;-2.53;42.37;102387.22;3722639;38;21252;-53
2022/03/11 09:26:00;;;;;;;;;8.50;6.25;;;;;-2.38;41.14;102384.00;3722679;37;21559;-56
2022/03/11 09:28:27;;;;;;;;;9.25;8.25;;;;;-2.55;41.63;102381.97;3722662;38;21438;-52
2022/03/11 09:30:55;;;;;;;;;4.75;4.75;;;;;-2.47;40.26;102390.50;3722623;37;21276;-52
2022/03/11 09:33:22;;;;;;;;;5.75;5.25;;;;;-2.16;40.43;102408.81;3722630;38;21257;-55
2022/03/11 09:35:50;;;;;;;;;1.25;1.25;;;;;-2.08;39.50;102363.44;3721781;37;20975;-54
2022/03/11 09:38:17;;;;;;;;;4.75;4.00;;;;;-1.84;39.89;102375.75;3721851;38;21461;-55
2022/03/11 09:40:45;;;;;;;;;4.00;2.00;;;;;-1.82;39.16;102386.31;3722639;37;20896;-53
2022/03/11 09:43:14;;;;;;;;;3.00;3.00;;;;;-1.71;39.36;102366.38;3722483;37;21231;-53
2022/03/11 09:45:42;;;;;;;;;4.25;4.25;;;;;-2.04;37.62;102376.50;3722503;38;21307;-55
2022/03/11 09:48:10;;;;;;;;;6.00;6.00;;;;;-1.92;37.82;102374.31;3722386;38;21402;-53
2022/03/11 09:50:40;;;;;;;;;4.75;4.75;;;;;-1.80;37.28;102365.87;3722145;37;21241;-52
2022/03/11 09:53:08;;;;;;;;;4.25;4.25;;;;;-1.63;37.27;102387.31;3721843;38;21313;-53
2022/03/11 09:55:35;;;;;;;;;5.00;5.00;;;;;-1.69;37.06;102374.28;3722546;37;21331;-52
2022/03/11 09:58:03;;;;;;;;;3.25;3.25;;;;;-1.94;35.99;102371.72;3722397;38;21338;-53
2022/03/11 10:00:30;;;;;;;;;2.00;1.00;;;;;-1.80;35.78;102361.44;3722783;38;21318;-54
2022/03/11 10:02:58;;;;;;;;;4.00;4.00;;;;;-1.83;35.72;102350.06;3722563;38;21290;-50
2022/03/11 10:06:00;;;;;;;;;4.00;4.00;;;;;-1.64;35.94;102361.69;3722626;37;21281;-52
2022/03/11 10:08:39;;;;;;;;;6.25;4.00;;;;;-1.60;35.43;102347.38;3722733;37;21372;-53
2022/03/11 10:11:21;;;;;;;;;3.50;2.00;;;;;-1.64;35.21;102364.34;3722701;38;21308;-52
2022/03/11 10:13:52;;;;;;;;;1.50;1.50;;;;;-1.50;35.24;102346.03;3722047;38;20919;-53
2022/03/11 10:16:22;;;;;;;;;5.75;4.25;;;;;-1.38;35.33;102384.53;3722678;38;21291;-54
2022/03/11 10:19:05;;;;;;;;;3.50;2.00;;;;;-1.51;35.06;102357.59;3722688;38;21250;-54
2022/03/11 10:21:43;;;;;;;;;0.00;0.00;;;;;-1.45;36.04;102406.94;3722498;37;21041;-53
2022/03/11 10:24:18;;;;;;;;;4.00;4.00;;;;;-1.67;37.71;102346.75;3722026;38;21259;-53
2022/03/11 10:26:50;;;;;;;;;3.50;3.50;;;;;-1.63;37.33;102344.84;3722476;37;21198;-56
2022/03/11 10:29:23;;;;;;;;;4.25;4.25;;;;;-1.59;37.38;102345.59;3722804;37;20977;-54
2022/03/11 10:31:55;;;;;;;;;7.00;5.50;;;;;-1.57;36.62;102402.13;3722316;37;21428;-53
2022/03/11 10:34:34;;;;;;;;;4.75;4.75;;;;;-1.59;38.40;102386.28;3722343;37;21258;-53
2022/03/11 10:37:09;;;;;;;;;4.50;3.75;;;;;-1.70;38.59;102353.97;3722196;37;21082;-51
2022/03/11 10:39:42;;;;;;;;;7.25;6.75;;;;;-1.58;37.04;102348.19;3722314;38;21034;-52
2022/03/11 10:42:21;;;;;;;;;3.50;3.50;;;;;-1.49;37.61;102357.53;3722469;37;21258;-51
2022/03/11 10:45:06;;;;;;;;;6.25;4.75;;;;;-1.31;37.44;102364.75;3721747;38;21282;-51
2022/03/11 10:47:36;;;;;;;;;6.00;6.00;;;;;-1.37;37.65;102355.25;3722624;37;21321;-52
2022/03/11 10:50:09;;;;;;;;;5.00;3.50;;;;;-1.39;36.79;102362.41;3722651;37;21436;-52
2022/03/11 10:52:45;;;;;;;;;2.50;2.00;;;;;-1.49;38.24;102407.97;3722612;37;21210;-53
2022/03/11 10:55:26;;;;;;;;;5.00;4.00;;;;;-1.56;43.71;102356.09;3721895;37;21289;-51
2022/03/11 10:57:58;;;;;;;;;1.50;1.00;;;;;-1.33;41.31;102350.66;3722630;38;21211;-52
2022/03/11 11:00:36;;;;;;;;;6.00;6.00;;;;;-1.18;39.70;102358.00;3722421;38;21221;-54
2022/03/11 11:03:06;;;;;;;;;3.50;3.50;;;;;-1.28;41.32;102353.13;3721593;38;21202;-52
2022/03/11 11:05:35;;;;;;;;;5.25;5.00;;;;;-1.20;41.40;102382.91;3722595;37;20851;-51
2022/03/11 11:08:05;;;;;;;;;4.00;4.00;;;;;-1.28;39.38;102348.69;3721631;38;20905;-52
2022/03/11 11:10:37;;;;;;;;;6.00;5.50;;;;;-1.19;38.98;102328.84;3722166;37;21221;-50
2022/03/11 11:13:06;;;;;;;;;6.25;5.50;;;;;-1.28;39.05;102369.06;3722605;37;21091;-51
2022/03/11 11:15:33;;;;;;;;;5.00;4.75;;;;;-1.28;39.79;102345.16;3722581;37;21187;-53
2022/03/11 11:18:11;;;;;;;;;11.00;8.25;;;;;-1.16;39.51;102349.97;3722422;37;21175;-53